Time;durP1;ratioP1;P1;durP2;ratioP2;P2;SDS_P1;SDS_P2;PMS_P1;PMS_P2;Temp;Humidity;BMP_temperature;BMP_pressure;BME280_temperature;BME280_humidity;BME280_pressure;Samples;Min_cycle;Max_cycle;Signal;HPM_P1;HPM_P2
2022/10/31 00:00:27;;;;;;;10.57;4.93;;;16.60;73.30;;;;;;5038759;28;20282;-96
2022/10/31 00:03:06;;;;;;;7.90;3.97;;;16.50;73.20;;;;;;5037441;28;20211;-96
2022/10/31 00:05:37;;;;;;;8.77;4.23;;;16.50;73.00;;;;;;5039369;28;20267;-95
2022/10/31 00:08:17;;;;;;;10.33;4.57;;;16.50;72.90;;;;;;5048259;28;20767;-95
2022/10/31 00:11:13;;;;;;;12.00;4.93;;;16.50;73.00;;;;;;5047804;28;20206;-95
2022/10/31 00:13:45;;;;;;;16.20;5.90;;;16.50;73.20;;;;;;5033959;28;20213;-95
2022/10/31 00:16:28;;;;;;;11.70;5.07;;;16.50;72.80;;;;;;5037207;28;20211;-95
2022/10/31 00:19:09;;;;;;;11.03;4.70;;;16.40;73.10;;;;;;5037937;28;20219;-96
2022/10/31 00:21:38;;;;;;;11.77;5.03;;;16.40;73.10;;;;;;5039381;28;20201;-95
2022/10/31 00:24:33;;;;;;;10.63;4.63;;;16.40;72.80;;;;;;5041116;28;20205;-96
2022/10/31 00:27:07;;;;;;;9.67;4.57;;;16.30;72.90;;;;;;5047246;28;20212;-96
2022/10/31 00:29:35;;;;;;;9.97;4.97;;;16.30;72.70;;;;;;5041479;28;20265;-95
2022/10/31 00:32:07;;;;;;;9.57;4.43;;;16.30;72.70;;;;;;5049427;28;20192;-93
2022/10/31 00:34:47;;;;;;;7.83;3.90;;;16.30;72.90;;;;;;5051513;28;20213;-95
2022/10/31 00:37:25;;;;;;;8.60;3.90;;;16.20;72.70;;;;;;5049926;28;20214;-95
2022/10/31 00:42:44;;;;;;;11.33;4.87;;;16.20;72.30;;;;;;5048221;28;20227;-94
2022/10/31 00:45:15;;;;;;;7.40;3.63;;;16.10;72.50;;;;;;5033418;28;20213;-96
2022/10/31 00:47:50;;;;;;;6.77;3.87;;;16.10;72.70;;;;;;5028567;28;20205;-95
2022/10/31 00:50:19;;;;;;;7.17;3.93;;;16.10;72.70;;;;;;5030527;28;20799;-94
2022/10/31 00:52:47;;;;;;;7.97;3.90;;;16.10;72.80;;;;;;5045424;28;20228;-96
2022/10/31 00:55:20;;;;;;;12.10;5.10;;;16.00;72.60;;;;;;5039301;28;20208;-96
2022/10/31 00:58:04;;;;;;;11.33;5.40;;;16.00;72.60;;;;;;5044407;28;20201;-96
2022/10/31 01:00:33;;;;;;;7.17;3.80;;;16.00;72.70;;;;;;5026773;28;20665;-95
2022/10/31 01:03:03;;;;;;;9.00;4.23;;;15.90;72.50;;;;;;5041503;28;20200;-95
2022/10/31 01:05:37;;;;;;;9.20;4.43;;;15.90;72.50;;;;;;5042792;28;20210;-95
2022/10/31 01:08:06;;;;;;;9.97;4.57;;;15.90;72.60;;;;;;5044428;28;20205;-95
2022/10/31 01:10:41;;;;;;;7.53;4.10;;;15.80;72.40;;;;;;5025103;28;20210;-95
2022/10/31 01:13:11;;;;;;;8.17;3.53;;;15.80;72.40;;;;;;5031295;28;20257;-95
2022/10/31 01:15:54;;;;;;;8.47;3.83;;;15.80;72.40;;;;;;5039387;28;20204;-95
2022/10/31 01:18:22;;;;;;;10.27;4.57;;;15.70;72.50;;;;;;5046897;28;20197;-95
2022/10/31 01:21:03;;;;;;;11.07;4.90;;;15.70;72.30;;;;;;5033673;28;20216;-95
2022/10/31 01:23:39;;;;;;;7.00;3.70;;;15.70;72.50;;;;;;5046394;28;20686;-95
2022/10/31 01:26:12;;;;;;;7.57;4.43;;;15.60;72.30;;;;;;5039674;28;20238;-96
2022/10/31 01:28:45;;;;;;;11.30;4.87;;;15.60;72.40;;;;;;5043525;28;20689;-95
2022/10/31 01:31:18;;;;;;;7.03;3.87;;;15.60;72.40;;;;;;5035520;28;20205;-96
2022/10/31 01:33:47;;;;;;;8.43;4.20;;;15.50;72.40;;;;;;5025249;28;20354;-95
2022/10/31 01:36:19;;;;;;;7.83;4.00;;;15.50;72.20;;;;;;5029831;28;20196;-95
2022/10/31 01:38:50;;;;;;;9.00;4.20;;;15.50;72.50;;;;;;5046035;28;20205;-95
2022/10/31 01:41:26;;;;;;;5.53;3.80;;;15.50;72.70;;;;;;5043447;28;20205;-95
2022/10/31 01:44:05;;;;;;;11.33;4.70;;;15.40;72.80;;;;;;5029146;28;20196;-94
2022/10/31 01:46:46;;;;;;;8.33;4.47;;;15.40;73.00;;;;;;5024756;28;20212;-93
2022/10/31 01:49:18;;;;;;;12.77;6.00;;;15.40;73.00;;;;;;5023193;28;20582;-95
2022/10/31 01:51:56;;;;;;;9.13;4.70;;;15.30;72.80;;;;;;5027734;28;20213;-95
2022/10/31 01:54:33;;;;;;;9.63;4.83;;;15.30;72.80;;;;;;5034714;28;20255;-95
2022/10/31 01:57:14;;;;;;;5.47;3.80;;;15.30;72.90;;;;;;5042334;28;20201;-95
2022/10/31 01:59:59;;;;;;;8.00;4.43;;;15.20;73.10;;;;;;5044230;28;20229;-96
2022/10/31 02:02:33;;;;;;;5.87;3.93;;;15.20;73.00;;;;;;5038625;28;20666;-95
2022/10/31 02:05:10;;;;;;;7.13;4.23;;;15.20;73.30;;;;;;5034208;28;20220;-95
2022/10/31 02:07:43;;;;;;;7.50;4.57;;;15.20;73.40;;;;;;5043722;28;20233;-95
2022/10/31 02:10:20;;;;;;;8.97;4.63;;;15.10;73.10;;;;;;5043861;28;20199;-95
2022/10/31 02:13:05;;;;;;;12.43;5.37;;;15.20;73.00;;;;;;5028610;28;20220;-94
2022/10/31 02:15:39;;;;;;;6.63;4.13;;;15.10;73.20;;;;;;5024413;28;20209;-95
2022/10/31 02:18:10;;;;;;;11.83;5.40;;;15.10;73.20;;;;;;5025599;28;20205;-95
2022/10/31 02:20:56;;;;;;;8.10;4.00;;;15.10;73.40;;;;;;5024112;28;20295;-94
2022/10/31 02:24:02;;;;;;;18.47;6.27;;;15.00;73.40;;;;;;5028127;28;20290;-95
2022/10/31 02:27:02;;;;;;;16.43;5.67;;;15.00;73.60;;;;;;5039699;28;20193;-94
2022/10/31 02:30:17;;;;;;;7.17;4.23;;;15.00;73.50;;;;;;5039430;28;20205;-94
2022/10/31 02:36:22;;;;;;;7.73;4.53;;;15.00;73.60;;;;;;5121693;27;20555;-95
2022/10/31 02:38:58;;;;;;;6.60;4.27;;;14.90;73.40;;;;;;5108249;27;20718;-95
2022/10/31 02:41:36;;;;;;;8.73;5.20;;;14.90;73.10;;;;;;5102818;28;20202;-95
2022/10/31 02:44:10;;;;;;;12.63;5.50;;;14.90;73.50;;;;;;5105558;28;20242;-96
2022/10/31 02:46:46;;;;;;;7.03;4.83;;;14.90;73.40;;;;;;5104494;28;20635;-95
2022/10/31 02:49:27;;;;;;;10.03;4.57;;;14.90;73.70;;;;;;5111616;28;20189;-94
2022/10/31 02:52:00;;;;;;;9.87;4.77;;;14.80;73.70;;;;;;5101931;28;20327;-95
2022/10/31 02:54:37;;;;;;;8.10;4.33;;;14.80;73.70;;;;;;5113951;28;20230;-95
2022/10/31 02:57:10;;;;;;;5.30;4.23;;;14.80;73.60;;;;;;5108749;28;20223;-94
2022/10/31 02:59:42;;;;;;;10.60;5.53;;;14.70;73.60;;;;;;5103241;28;20218;-94
2022/10/31 03:02:49;;;;;;;13.80;6.37;;;14.70;73.70;;;;;;5114705;27;20205;-94
2022/10/31 03:05:32;;;;;;;13.73;6.80;;;14.70;73.90;;;;;;5105594;28;20278;-95
2022/10/31 03:08:16;;;;;;;18.60;6.70;;;14.70;73.90;;;;;;5097406;28;20258;-95
2022/10/31 03:10:51;;;;;;;8.87;4.67;;;14.70;73.80;;;;;;5097654;28;20270;-95
2022/10/31 03:13:34;;;;;;;12.53;6.03;;;14.60;73.60;;;;;;5098904;28;20317;-96
2022/10/31 03:16:18;;;;;;;7.70;4.87;;;14.60;73.70;;;;;;5104135;28;20225;-94
2022/10/31 03:18:53;;;;;;;7.47;4.90;;;14.60;73.90;;;;;;5101688;28;20190;-95
2022/10/31 03:21:28;;;;;;;7.90;4.67;;;14.60;73.80;;;;;;5110380;28;20199;-95
2022/10/31 03:24:11;;;;;;;7.73;4.93;;;14.60;73.80;;;;;;5102114;28;20242;-95
2022/10/31 03:26:47;;;;;;;5.23;4.23;;;14.50;74.10;;;;;;5106386;28;20201;-94
2022/10/31 03:29:22;;;;;;;6.67;4.47;;;14.50;74.20;;;;;;5106160;28;20201;-96
2022/10/31 03:31:56;;;;;;;7.93;4.70;;;14.50;74.30;;;;;;5110520;28;20308;-96
2022/10/31 03:34:23;;;;;;;10.87;4.83;;;14.50;74.30;;;;;;5101226;28;20230;-96
2022/10/31 03:36:56;;;;;;;10.97;5.30;;;14.40;74.10;;;;;;5117749;27;20623;-96
2022/10/31 03:39:30;;;;;;;9.13;5.03;;;14.40;74.50;;;;;;5105302;28;20687;-96
2022/10/31 03:42:08;;;;;;;11.47;5.50;;;14.40;74.60;;;;;;5109563;28;20283;-96
2022/10/31 03:44:42;;;;;;;8.67;4.77;;;14.40;74.50;;;;;;5099644;28;20985;-94
2022/10/31 03:47:10;;;;;;;9.73;4.70;;;14.30;74.50;;;;;;5080474;28;20693;-95
2022/10/31 03:49:38;;;;;;;8.17;4.23;;;14.30;74.30;;;;;;5090777;28;20286;-95
2022/10/31 03:52:15;;;;;;;7.33;4.53;;;14.30;74.40;;;;;;5097067;28;20205;-95
2022/10/31 03:54:58;;;;;;;10.43;5.37;;;14.30;74.40;;;;;;5086239;28;20590;-94
2022/10/31 03:57:38;;;;;;;9.07;5.10;;;14.20;74.90;;;;;;5090285;28;20237;-94
2022/10/31 04:00:09;;;;;;;10.30;5.03;;;14.20;74.30;;;;;;5083623;28;20206;-95
2022/10/31 04:02:44;;;;;;;7.57;4.93;;;14.20;74.30;;;;;;5084544;28;20198;-94
2022/10/31 04:05:16;;;;;;;6.07;3.93;;;14.20;74.50;;;;;;5090537;28;20207;-94
2022/10/31 04:07:47;;;;;;;9.23;5.23;;;14.20;74.80;;;;;;5091400;28;20228;-95
2022/10/31 04:10:20;;;;;;;7.37;4.23;;;14.20;74.70;;;;;;5089971;28;20207;-95
2022/10/31 04:13:00;;;;;;;6.80;4.30;;;14.20;75.00;;;;;;5084888;28;20231;-94
2022/10/31 04:15:32;;;;;;;11.93;5.63;;;14.10;75.20;;;;;;5091472;28;20215;-95
2022/10/31 04:18:09;;;;;;;7.73;4.43;;;14.10;74.90;;;;;;5088969;28;20216;-95
2022/10/31 04:20:43;;;;;;;6.63;3.90;;;14.10;75.50;;;;;;5081875;28;20653;-93
2022/10/31 04:23:20;;;;;;;10.20;4.90;;;14.10;75.50;;;;;;5081737;28;20629;-94
2022/10/31 04:25:53;;;;;;;8.47;4.60;;;14.10;75.90;;;;;;5084283;28;20887;-95
2022/10/31 04:28:23;;;;;;;9.50;5.07;;;14.10;76.10;;;;;;5089427;28;20902;-93
2022/10/31 04:30:57;;;;;;;9.53;4.83;;;14.10;76.00;;;;;;5101373;28;20206;-94
2022/10/31 04:33:25;;;;;;;9.67;5.43;;;14.10;76.00;;;;;;5099214;28;20199;-94
2022/10/31 04:35:58;;;;;;;6.80;4.33;;;14.10;76.00;;;;;;5086552;28;20287;-93
2022/10/31 04:38:27;;;;;;;8.97;5.17;;;14.00;76.30;;;;;;5093420;28;20229;-95
2022/10/31 04:41:02;;;;;;;10.17;4.73;;;14.00;76.20;;;;;;5092103;28;20256;-95
2022/10/31 04:43:33;;;;;;;13.47;5.43;;;14.00;76.30;;;;;;5098924;28;20236;-94
2022/10/31 04:46:08;;;;;;;8.43;5.07;;;14.00;76.50;;;;;;5093850;28;20193;-95
2022/10/31 04:48:41;;;;;;;8.23;4.40;;;14.00;76.90;;;;;;5089302;28;20226;-95
2022/10/31 04:51:14;;;;;;;6.53;4.07;;;14.00;76.90;;;;;;5094143;28;20262;-95
2022/10/31 04:53:51;;;;;;;13.23;6.57;;;14.00;77.00;;;;;;5097440;28;20205;-95
2022/10/31 04:56:27;;;;;;;11.53;5.57;;;14.00;76.80;;;;;;5093247;28;20699;-95
2022/10/31 04:58:57;;;;;;;11.73;5.53;;;14.00;76.80;;;;;;5084746;28;20234;-95
2022/10/31 05:01:32;;;;;;;7.67;4.80;;;14.00;76.50;;;;;;5097716;28;20198;-95
2022/10/31 05:04:10;;;;;;;9.47;5.37;;;14.00;76.90;;;;;;5103562;28;20197;-95
2022/10/31 05:06:48;;;;;;;10.03;5.33;;;14.00;77.00;;;;;;5088894;28;20207;-95
2022/10/31 05:09:18;;;;;;;19.00;7.37;;;14.00;76.60;;;;;;5085853;28;20614;-94
2022/10/31 05:11:50;;;;;;;7.80;4.73;;;13.90;76.50;;;;;;5094168;28;20204;-95
2022/10/31 05:14:29;;;;;;;6.47;5.17;;;13.90;76.30;;;;;;5092393;28;20198;-94
2022/10/31 05:17:03;;;;;;;14.80;7.53;;;14.00;76.30;;;;;;5082897;28;20199;-96
2022/10/31 05:19:37;;;;;;;9.93;4.97;;;13.90;75.90;;;;;;5081738;28;20227;-95
2022/10/31 05:22:07;;;;;;;6.43;4.10;;;13.90;76.30;;;;;;5082293;28;20205;-95
2022/10/31 05:24:37;;;;;;;8.70;5.40;;;13.90;76.10;;;;;;5080722;28;20201;-94
2022/10/31 05:27:12;;;;;;;7.93;5.23;;;13.90;75.80;;;;;;5083533;28;20203;-95
2022/10/31 05:29:42;;;;;;;10.77;5.53;;;13.90;76.10;;;;;;5081236;28;20280;-94
2022/10/31 05:32:18;;;;;;;5.00;4.03;;;13.80;75.90;;;;;;5085904;28;21884;-95
2022/10/31 05:34:46;;;;;;;12.10;5.80;;;13.90;75.80;;;;;;5092905;28;20226;-95
2022/10/31 05:37:20;;;;;;;7.57;4.47;;;13.80;75.70;;;;;;5098061;28;20191;-94
2022/10/31 05:39:48;;;;;;;7.03;4.50;;;13.80;76.30;;;;;;5087378;28;20220;-95
2022/10/31 05:45:02;;;;;;;10.23;5.70;;;13.80;76.30;;;;;;5082028;28;20214;-95
2022/10/31 05:47:30;;;;;;;6.73;4.00;;;13.80;76.10;;;;;;5083423;28;20307;-94
2022/10/31 05:50:03;;;;;;;15.07;6.67;;;13.80;76.20;;;;;;5084057;28;20220;-95
2022/10/31 05:52:34;;;;;;;11.83;5.97;;;13.80;76.50;;;;;;5086170;28;20199;-94
2022/10/31 05:55:05;;;;;;;14.67;6.37;;;13.80;76.40;;;;;;5085007;28;20231;-94
2022/10/31 05:57:37;;;;;;;9.83;4.93;;;13.70;76.40;;;;;;5100171;28;20268;-95
2022/10/31 06:00:13;;;;;;;15.53;6.43;;;13.70;77.10;;;;;;5107456;28;20199;-93
2022/10/31 06:02:42;;;;;;;13.63;6.33;;;13.70;76.20;;;;;;5086160;28;20200;-95
2022/10/31 06:05:12;;;;;;;7.73;4.67;;;13.70;75.80;;;;;;5105644;28;20198;-95
2022/10/31 06:07:43;;;;;;;10.17;5.07;;;13.70;75.90;;;;;;5107196;28;20198;-95
2022/10/31 06:10:12;;;;;;;8.90;4.83;;;13.70;76.20;;;;;;5092566;28;20212;-95
2022/10/31 06:12:43;;;;;;;8.27;3.93;;;13.70;76.40;;;;;;5094092;28;20214;-95
2022/10/31 06:15:11;;;;;;;7.80;4.67;;;13.70;76.80;;;;;;5092586;28;20261;-95
2022/10/31 06:17:42;;;;;;;11.93;5.47;;;13.70;76.80;;;;;;5092694;28;20225;-94
2022/10/31 06:20:17;;;;;;;9.63;4.30;;;13.60;76.80;;;;;;5083370;28;20213;-95
2022/10/31 06:22:45;;;;;;;9.97;5.07;;;13.60;77.00;;;;;;5079652;28;20203;-95
2022/10/31 06:25:17;;;;;;;9.90;5.03;;;13.60;76.70;;;;;;5082386;28;20199;-95
2022/10/31 06:27:50;;;;;;;13.87;5.90;;;13.60;76.70;;;;;;5084992;28;20200;-94
2022/10/31 06:30:17;;;;;;;9.67;5.43;;;13.60;77.20;;;;;;5077706;28;20265;-95
2022/10/31 06:32:47;;;;;;;9.57;5.30;;;13.60;76.80;;;;;;5090291;28;20256;-95
2022/10/31 06:35:48;;;;;;;12.50;5.73;;;13.60;77.10;;;;;;5096921;28;20228;-96
2022/10/31 06:38:29;;;;;;;17.43;6.67;;;13.60;78.30;;;;;;5083784;28;20228;-95
2022/10/31 06:41:03;;;;;;;15.80;6.40;;;13.60;77.80;;;;;;5085114;28;20199;-95
2022/10/31 06:43:44;;;;;;;9.27;4.73;;;13.50;78.10;;;;;;5083135;28;20196;-95
2022/10/31 06:46:12;;;;;;;6.13;4.17;;;13.60;77.80;;;;;;5087310;28;20197;-94
2022/10/31 06:48:41;;;;;;;5.63;4.33;;;13.50;77.20;;;;;;5090940;28;20230;-94
2022/10/31 06:51:10;;;;;;;5.63;4.13;;;13.50;77.50;;;;;;5078176;28;20213;-95
2022/10/31 06:53:43;;;;;;;9.33;5.07;;;13.50;77.80;;;;;;5082802;28;20794;-95
2022/10/31 06:56:11;;;;;;;10.17;5.27;;;13.50;78.00;;;;;;5096880;28;20232;-93
2022/10/31 06:58:47;;;;;;;11.37;5.47;;;13.50;78.10;;;;;;5090526;28;20205;-94
2022/10/31 07:01:16;;;;;;;12.03;5.83;;;13.50;78.60;;;;;;5089585;28;20662;-94
2022/10/31 07:03:53;;;;;;;11.23;5.23;;;13.50;78.20;;;;;;5100468;28;20219;-94
2022/10/31 07:06:22;;;;;;;8.80;5.10;;;13.50;79.10;;;;;;5079557;28;20205;-94
2022/10/31 07:08:57;;;;;;;12.40;6.03;;;13.50;79.30;;;;;;5080704;28;20217;-94
2022/10/31 07:11:48;;;;;;;11.03;5.30;;;13.50;80.30;;;;;;5093605;28;20197;-94
2022/10/31 07:14:33;;;;;;;5.20;4.17;;;13.50;80.80;;;;;;5089445;28;20211;-94
2022/10/31 07:17:05;;;;;;;9.03;5.30;;;13.60;80.90;;;;;;5087340;28;20222;-95
2022/10/31 07:19:35;;;;;;;11.23;5.97;;;13.60;80.80;;;;;;5090196;28;20205;-94
2022/10/31 07:22:11;;;;;;;16.07;6.80;;;13.60;80.80;;;;;;5092389;28;20208;-94
2022/10/31 07:24:39;;;;;;;8.07;4.97;;;13.60;80.80;;;;;;5084730;28;20675;-95
2022/10/31 07:27:10;;;;;;;11.03;5.80;;;13.60;80.80;;;;;;5089357;28;20207;-94
2022/10/31 07:29:56;;;;;;;8.83;6.43;;;13.60;81.80;;;;;;5089529;28;20189;-95
2022/10/31 07:32:37;;;;;;;10.97;6.63;;;13.70;82.40;;;;;;5091064;28;20198;-95
2022/10/31 07:35:06;;;;;;;9.63;6.17;;;13.70;82.60;;;;;;5090726;28;20235;-95
2022/10/31 07:37:34;;;;;;;13.90;7.80;;;13.70;82.30;;;;;;5093787;28;20212;-95
2022/10/31 07:40:16;;;;;;;12.60;6.90;;;13.70;82.60;;;;;;5092801;28;20908;-96
2022/10/31 07:43:05;;;;;;;13.53;7.37;;;13.70;82.90;;;;;;5089017;28;20204;-95
2022/10/31 07:45:34;;;;;;;16.23;7.63;;;13.80;83.80;;;;;;5084708;28;20303;-95
2022/10/31 07:48:04;;;;;;;14.27;7.13;;;13.80;83.30;;;;;;5099435;28;20547;-95
2022/10/31 07:50:34;;;;;;;14.77;7.27;;;13.80;83.10;;;;;;5102198;28;20206;-95
2022/10/31 07:53:04;;;;;;;10.67;7.17;;;13.90;84.00;;;;;;5095201;28;20244;-95
2022/10/31 07:55:35;;;;;;;16.20;7.60;;;13.90;84.30;;;;;;5086103;28;20797;-95
2022/10/31 07:58:10;;;;;;;10.20;5.97;;;13.90;84.00;;;;;;5090876;28;20237;-96
2022/10/31 08:00:50;;;;;;;11.83;5.60;;;14.00;85.30;;;;;;5104112;28;20199;-95
2022/10/31 08:03:25;;;;;;;8.73;5.70;;;14.00;85.60;;;;;;5092095;28;20222;-95
2022/10/31 08:06:03;;;;;;;13.53;6.57;;;14.00;85.80;;;;;;5085622;28;20285;-95
2022/10/31 08:08:36;;;;;;;11.97;5.53;;;14.00;85.50;;;;;;5094761;28;20637;-95
2022/10/31 08:11:10;;;;;;;9.17;5.87;;;14.10;86.40;;;;;;5093011;28;20208;-95
2022/10/31 08:13:43;;;;;;;6.03;5.03;;;14.20;86.70;;;;;;5094973;28;20205;-95
2022/10/31 08:16:24;;;;;;;7.87;4.83;;;14.20;87.10;;;;;;5093853;28;20482;-95
2022/10/31 08:18:55;;;;;;;6.17;4.03;;;14.20;87.30;;;;;;5102844;28;20213;-96
2022/10/31 08:21:24;;;;;;;7.53;4.90;;;14.30;86.80;;;;;;5107692;28;20300;-96
2022/10/31 08:24:00;;;;;;;6.53;4.93;;;14.30;86.80;;;;;;5105621;28;20207;-95
2022/10/31 08:26:35;;;;;;;9.27;5.70;;;14.40;87.80;;;;;;5086068;28;20216;-95
2022/10/31 08:29:05;;;;;;;10.17;5.40;;;14.40;87.70;;;;;;5084884;28;20196;-96
2022/10/31 08:31:52;;;;;;;13.77;6.70;;;14.50;87.30;;;;;;5093033;28;20207;-94
2022/10/31 08:34:19;;;;;;;8.07;5.43;;;14.60;88.90;;;;;;5109295;28;20215;-95
2022/10/31 08:36:47;;;;;;;8.87;5.80;;;14.60;87.50;;;;;;5095117;28;20227;-95
2022/10/31 08:39:22;;;;;;;8.33;5.87;;;14.70;88.30;;;;;;5086557;28;20225;-96
2022/10/31 08:41:54;;;;;;;10.80;5.70;;;14.80;89.40;;;;;;5084856;28;20230;-95
2022/10/31 08:44:24;;;;;;;7.53;4.67;;;14.80;89.30;;;;;;5108434;28;20193;-96
2022/10/31 08:46:54;;;;;;;12.90;7.07;;;14.90;89.20;;;;;;5104633;28;20723;-96
2022/10/31 08:49:26;;;;;;;10.83;5.97;;;15.00;89.30;;;;;;5088771;28;20267;-95
2022/10/31 08:52:00;;;;;;;9.60;6.63;;;15.00;89.20;;;;;;5094564;28;20199;-95
2022/10/31 08:54:41;;;;;;;10.43;6.67;;;15.00;90.20;;;;;;5097142;28;20224;-96
2022/10/31 08:57:12;;;;;;;9.03;6.47;;;15.10;90.70;;;;;;5104257;28;20239;-95
2022/10/31 08:59:52;;;;;;;7.80;5.90;;;15.20;90.50;;;;;;5087449;28;20236;-96
2022/10/31 09:02:27;;;;;;;13.07;7.10;;;15.30;90.90;;;;;;5088850;28;20201;-95
2022/10/31 09:04:55;;;;;;;9.27;6.20;;;15.30;90.90;;;;;;5087126;28;20205;-95
2022/10/31 09:07:26;;;;;;;13.30;7.37;;;15.40;90.30;;;;;;5101117;28;20230;-95
2022/10/31 09:09:55;;;;;;;7.20;5.40;;;15.50;90.50;;;;;;5090575;28;20257;-95
2022/10/31 09:12:26;;;;;;;12.93;7.13;;;15.60;90.40;;;;;;5085486;28;20206;-96
2022/10/31 09:14:55;;;;;;;10.60;7.17;;;15.60;90.70;;;;;;5084455;28;20187;-95
2022/10/31 09:17:35;;;;;;;10.90;5.97;;;15.70;90.70;;;;;;5089306;28;20231;-96
2022/10/31 09:20:11;;;;;;;13.20;6.30;;;15.80;90.90;;;;;;5084076;28;20664;-96
2022/10/31 09:22:49;;;;;;;9.37;5.50;;;15.80;90.80;;;;;;5084984;28;20671;-95
2022/10/31 09:25:22;;;;;;;11.67;7.00;;;15.90;90.70;;;;;;5100158;28;20678;-96
2022/10/31 09:27:52;;;;;;;10.10;6.80;;;16.00;90.60;;;;;;5084675;28;20248;-96
2022/10/31 09:30:23;;;;;;;8.27;5.50;;;16.10;90.80;;;;;;5094942;28;20199;-95
2022/10/31 09:33:07;;;;;;;8.37;5.47;;;16.10;90.80;;;;;;5092305;28;20192;-95
2022/10/31 09:35:35;;;;;;;9.17;5.60;;;16.20;91.40;;;;;;5082727;28;20204;-95
2022/10/31 09:38:08;;;;;;;8.63;5.43;;;16.30;90.70;;;;;;5083030;28;20203;-96
2022/10/31 09:43:35;;;;;;;11.93;5.67;;;16.40;91.20;;;;;;5088573;28;20674;-96
2022/10/31 09:46:14;;;;;;;12.20;6.37;;;16.50;91.40;;;;;;5108781;28;20271;-96
2022/10/31 09:49:01;;;;;;;11.30;6.13;;;16.60;91.40;;;;;;5113005;28;20294;-96
2022/10/31 09:51:39;;;;;;;8.47;5.40;;;16.70;91.50;;;;;;5102190;28;20199;-95
2022/10/31 09:54:18;;;;;;;10.17;6.13;;;16.70;91.30;;;;;;5083406;28;20202;-96
2022/10/31 09:56:55;;;;;;;10.93;6.07;;;16.80;91.50;;;;;;5094628;28;20234;-95
2022/10/31 09:59:29;;;;;;;9.47;5.37;;;16.90;91.50;;;;;;5085189;28;20214;-95
2022/10/31 10:02:04;;;;;;;10.90;6.53;;;17.00;91.30;;;;;;5082271;28;20656;-96
2022/10/31 10:04:42;;;;;;;8.60;6.17;;;17.00;91.30;;;;;;5080441;28;20235;-96
2022/10/31 10:07:25;;;;;;;7.73;5.57;;;17.10;91.30;;;;;;5083153;28;20215;-96
2022/10/31 10:09:58;;;;;;;8.03;4.83;;;17.20;91.20;;;;;;5082580;28;20213;-95
2022/10/31 10:12:56;;;;;;;10.47;6.37;;;17.20;91.20;;;;;;5083613;28;20206;-96
2022/10/31 10:15:52;;;;;;;9.37;5.20;;;17.40;91.50;;;;;;5097420;28;20208;-96
2022/10/31 10:18:29;;;;;;;7.80;5.40;;;17.50;91.40;;;;;;5083222;28;20199;-96
2022/10/31 10:21:08;;;;;;;10.17;5.90;;;17.50;91.00;;;;;;5080357;28;20274;-95
2022/10/31 10:24:00;;;;;;;10.57;5.03;;;17.60;91.00;;;;;;5084718;28;20225;-96
2022/10/31 10:26:37;;;;;;;8.93;5.27;;;17.70;91.10;;;;;;5081397;28;20202;-95
2022/10/31 10:29:28;;;;;;;14.47;6.63;;;17.80;90.80;;;;;;5080598;28;20206;-96
2022/10/31 10:32:06;;;;;;;34.40;14.90;;;17.90;90.80;;;;;;5092624;22;20213;-95
2022/10/31 10:34:46;;;;;;;8.90;5.87;;;17.90;90.60;;;;;;5060754;28;20204;-96
2022/10/31 10:37:43;;;;;;;9.13;5.77;;;18.00;90.60;;;;;;5064566;28;20241;-96
2022/10/31 10:40:22;;;;;;;12.87;6.27;;;18.10;90.40;;;;;;5067923;28;20200;-96
2022/10/31 10:48:45;;;;;;;10.00;5.60;;;18.30;90.00;;;;;;5052615;28;20194;-95
2022/10/31 10:51:23;;;;;;;10.20;6.20;;;18.30;89.60;;;;;;5063077;28;20204;-94
2022/10/31 10:57:12;;;;;;;9.50;5.40;;;18.50;90.00;;;;;;5043185;28;20235;-94
2022/10/31 10:59:42;;;;;;;8.03;4.90;;;18.50;89.80;;;;;;5046979;28;20267;-94
2022/10/31 11:02:20;;;;;;;8.93;5.80;;;18.60;89.60;;;;;;5044975;28;20612;-95
2022/10/31 11:04:59;;;;;;;12.97;7.10;;;18.60;89.70;;;;;;5043832;28;20204;-95
2022/10/31 11:07:44;;;;;;;9.60;6.13;;;18.70;89.40;;;;;;5048802;28;20208;-94
2022/10/31 11:10:18;;;;;;;9.83;6.83;;;18.80;89.30;;;;;;5044787;28;20763;-94
2022/10/31 11:12:59;;;;;;;13.57;7.67;;;18.90;89.00;;;;;;5030852;28;20196;-94
2022/10/31 11:15:28;;;;;;;20.00;8.87;;;18.90;89.80;;;;;;5036464;28;20205;-94
2022/10/31 11:18:05;;;;;;;9.93;6.60;;;18.90;89.40;;;;;;5021509;28;20230;-94
2022/10/31 11:20:36;;;;;;;11.77;7.40;;;19.00;89.60;;;;;;5018966;28;20209;-91
2022/10/31 11:23:16;;;;;;;12.70;7.27;;;19.10;89.80;;;;;;5021744;28;20228;-92
2022/10/31 11:25:56;;;;;;;9.03;6.30;;;19.20;89.80;;;;;;5034660;28;20254;-94
2022/10/31 11:28:25;;;;;;;12.60;7.03;;;19.30;88.30;;;;;;5031616;28;20990;-93
2022/10/31 11:30:56;;;;;;;9.57;5.87;;;19.50;87.50;;;;;;5020110;28;20229;-93
2022/10/31 11:33:37;;;;;;;8.33;5.80;;;19.60;87.40;;;;;;5026846;28;20209;-94
2022/10/31 11:36:18;;;;;;;12.63;6.73;;;19.70;85.70;;;;;;5043153;28;20224;-93
2022/10/31 11:38:45;;;;;;;9.50;6.87;;;19.80;84.40;;;;;;5053033;28;20220;-94
2022/10/31 11:41:23;;;;;;;10.67;7.50;;;19.80;84.50;;;;;;5043525;28;20257;-93
2022/10/31 11:43:54;;;;;;;14.07;7.37;;;19.90;83.40;;;;;;5029489;28;20204;-94
2022/10/31 11:46:29;;;;;;;12.93;7.33;;;20.00;84.20;;;;;;5037371;28;20270;-94
2022/10/31 11:49:02;;;;;;;11.57;5.63;;;20.00;83.90;;;;;;5036461;28;20255;-94
2022/10/31 11:51:34;;;;;;;11.93;6.93;;;20.10;83.60;;;;;;5039306;28;20202;-95
2022/10/31 11:54:06;;;;;;;15.77;6.43;;;20.10;83.60;;;;;;5036614;28;20258;-93
2022/10/31 11:56:45;;;;;;;8.07;5.97;;;20.20;83.00;;;;;;5034630;28;20234;-94
2022/10/31 11:59:33;;;;;;;10.27;6.50;;;20.30;82.30;;;;;;5040974;28;20212;-93
2022/10/31 12:02:02;;;;;;;9.23;5.63;;;20.40;81.90;;;;;;5035549;28;20219;-94
2022/10/31 12:04:41;;;;;;;10.10;6.20;;;20.50;82.60;;;;;;5039665;28;20932;-94
2022/10/31 12:07:12;;;;;;;11.33;6.13;;;20.50;81.50;;;;;;5038166;28;20204;-94
2022/10/31 12:09:40;;;;;;;11.60;6.47;;;20.60;81.30;;;;;;5038573;28;20217;-94
2022/10/31 12:12:28;;;;;;;13.23;7.17;;;20.60;81.20;;;;;;5038558;28;20244;-93
2022/10/31 12:15:17;;;;;;;8.03;5.90;;;20.70;80.50;;;;;;5043063;28;20243;-94
2022/10/31 12:17:50;;;;;;;15.53;8.10;;;20.80;80.60;;;;;;5024342;28;20235;-94
2022/10/31 12:20:30;;;;;;;11.80;6.30;;;20.80;80.20;;;;;;5038368;28;20204;-94
2022/10/31 12:23:04;;;;;;;7.93;5.87;;;20.80;79.80;;;;;;5035243;28;20215;-94
2022/10/31 12:25:41;;;;;;;10.37;5.17;;;20.90;79.20;;;;;;5027270;28;20197;-93
2022/10/31 12:28:35;;;;;;;8.63;5.60;;;20.90;79.00;;;;;;5036831;28;20216;-94
2022/10/31 12:31:35;;;;;;;8.97;5.13;;;20.90;78.30;;;;;;5014662;28;20209;-92
2022/10/31 12:34:44;;;;;;;9.40;5.30;;;21.00;78.90;;;;;;5048695;28;20205;-94
2022/10/31 12:37:19;;;;;;;7.87;4.87;;;21.00;77.50;;;;;;5036039;28;20229;-94
2022/10/31 12:40:04;;;;;;;9.07;5.20;;;21.00;77.80;;;;;;5040575;28;20642;-93
2022/10/31 12:43:00;;;;;;;10.13;6.37;;;21.00;77.20;;;;;;5038340;28;20213;-94
2022/10/31 12:45:46;;;;;;;6.87;5.40;;;21.00;77.20;;;;;;5018407;28;20197;-94
2022/10/31 12:48:35;;;;;;;6.20;5.37;;;21.10;77.40;;;;;;5023561;28;20669;-95
2022/10/31 12:51:12;;;;;;;6.23;5.30;;;21.10;77.20;;;;;;5027174;28;20292;-93
2022/10/31 12:53:52;;;;;;;10.60;6.37;;;21.10;77.00;;;;;;5035353;28;20212;-93
2022/10/31 12:56:38;;;;;;;8.67;6.00;;;21.00;76.50;;;;;;5026821;28;20299;-93
2022/10/31 12:59:15;;;;;;;9.60;6.10;;;21.00;76.10;;;;;;5038156;28;20661;-94
2022/10/31 13:01:51;;;;;;;11.70;6.63;;;21.00;76.10;;;;;;5039189;28;20300;-94
2022/10/31 13:04:27;;;;;;;9.40;6.17;;;21.00;76.40;;;;;;5025432;28;20214;-94
2022/10/31 13:06:59;;;;;;;7.03;5.43;;;21.00;76.20;;;;;;5033649;28;20201;-92
2022/10/31 13:09:41;;;;;;;9.37;4.90;;;20.90;76.10;;;;;;5043222;28;20200;-91
2022/10/31 13:12:16;;;;;;;9.27;5.30;;;21.00;76.20;;;;;;5044795;28;20241;-92
2022/10/31 13:15:05;;;;;;;9.50;5.77;;;20.90;76.30;;;;;;5046408;28;20200;-93
2022/10/31 13:17:53;;;;;;;9.23;6.47;;;20.90;76.60;;;;;;5032628;28;20247;-94
2022/10/31 13:26:14;;;;;;;7.00;5.83;;;20.80;76.60;;;;;;5052202;28;20283;-94
2022/10/31 13:28:50;;;;;;;9.37;6.57;;;20.80;76.70;;;;;;5037181;28;20210;-93
2022/10/31 13:31:28;;;;;;;15.27;8.10;;;20.80;77.00;;;;;;5055178;28;20192;-91
2022/10/31 13:34:22;;;;;;;12.10;7.10;;;20.80;76.70;;;;;;5055727;28;20240;-93
2022/10/31 13:37:03;;;;;;;13.83;7.57;;;20.80;77.00;;;;;;5036596;28;20181;-93
2022/10/31 13:39:51;;;;;;;7.57;5.83;;;20.80;77.00;;;;;;5034506;28;20205;-93
2022/10/31 13:42:41;;;;;;;10.47;6.73;;;20.80;77.20;;;;;;5033232;28;20205;-94
2022/10/31 13:51:41;;;;;;;9.70;6.83;;;20.80;77.10;;;;;;5039998;28;20222;-96
2022/10/31 13:54:23;;;;;;;9.97;7.17;;;20.80;76.90;;;;;;5048548;28;20198;-95
2022/10/31 13:56:55;;;;;;;10.57;6.60;;;20.80;76.90;;;;;;5048711;28;20221;-94
2022/10/31 13:59:32;;;;;;;10.50;7.10;;;20.80;77.10;;;;;;5047120;28;20215;-94
2022/10/31 14:02:21;;;;;;;10.47;6.93;;;20.80;77.10;;;;;;5047022;28;20231;-93